sensor_id;sensor_type;location;lat;lon;timestamp;temperature;humidity
20654;DHT22;21083;50.898;4.902;2022-10-14T00:01:02;15.20;99.90
20654;DHT22;21083;50.898;4.902;2022-10-14T00:03:29;15.20;99.90
20654;DHT22;21083;50.898;4.902;2022-10-14T00:05:56;15.30;99.90
20654;DHT22;21083;50.898;4.902;2022-10-14T00:08:23;15.20;99.90
20654;DHT22;21083;50.898;4.902;2022-10-14T00:10:50;15.20;99.90
20654;DHT22;21083;50.898;4.902;2022-10-14T00:13:17;15.30;99.90
20654;DHT22;21083;50.898;4.902;2022-10-14T00:15:45;15.30;99.90
20654;DHT22;21083;50.898;4.902;2022-10-14T00:18:12;15.30;99.90
20654;DHT22;21083;50.898;4.902;2022-10-14T00:20:39;15.30;99.90
20654;DHT22;21083;50.898;4.902;2022-10-14T00:23:06;15.30;99.90
20654;DHT22;21083;50.898;4.902;2022-10-14T00:25:36;15.30;99.90
20654;DHT22;21083;50.898;4.902;2022-10-14T00:28:04;15.30;99.90
20654;DHT22;21083;50.898;4.902;2022-10-14T00:30:31;15.20;99.90
20654;DHT22;21083;50.898;4.902;2022-10-14T00:32:59;15.20;99.90
20654;DHT22;21083;50.898;4.902;2022-10-14T00:35:26;15.20;99.90
20654;DHT22;21083;50.898;4.902;2022-10-14T00:37:53;15.30;99.90
20654;DHT22;21083;50.898;4.902;2022-10-14T00:40:20;15.20;99.90
20654;DHT22;21083;50.898;4.902;2022-10-14T00:42:47;15.30;99.90
20654;DHT22;21083;50.898;4.902;2022-10-14T00:45:16;15.30;99.90
20654;DHT22;21083;50.898;4.902;2022-10-14T00:47:45;15.30;99.90
20654;DHT22;21083;50.898;4.902;2022-10-14T00:50:15;15.20;99.90
20654;DHT22;21083;50.898;4.902;2022-10-14T00:52:43;15.30;99.90
20654;DHT22;21083;50.898;4.902;2022-10-14T00:55:13;15.30;99.90
20654;DHT22;21083;50.898;4.902;2022-10-14T00:57:40;15.20;99.90
20654;DHT22;21083;50.898;4.902;2022-10-14T01:00:09;15.20;99.90
20654;DHT22;21083;50.898;4.902;2022-10-14T01:02:37;15.30;99.90
20654;DHT22;21083;50.898;4.902;2022-10-14T01:05:06;15.30;99.90
20654;DHT22;21083;50.898;4.902;2022-10-14T01:07:41;15.30;99.90
20654;DHT22;21083;50.898;4.902;2022-10-14T01:10:13;15.20;99.90
20654;DHT22;21083;50.898;4.902;2022-10-14T01:12:50;15.20;99.90
20654;DHT22;21083;50.898;4.902;2022-10-14T01:15:27;15.30;99.90
20654;DHT22;21083;50.898;4.902;2022-10-14T01:18:06;15.30;99.90
20654;DHT22;21083;50.898;4.902;2022-10-14T01:20:56;15.30;99.90
20654;DHT22;21083;50.898;4.902;2022-10-14T01:23:48;15.30;99.90
20654;DHT22;21083;50.898;4.902;2022-10-14T01:26:28;15.40;99.90
20654;DHT22;21083;50.898;4.902;2022-10-14T01:29:12;15.40;99.90
20654;DHT22;21083;50.898;4.902;2022-10-14T01:31:47;15.30;99.90
20654;DHT22;21083;50.898;4.902;2022-10-14T01:34:21;15.30;99.90
20654;DHT22;21083;50.898;4.902;2022-10-14T01:36:54;15.30;99.90
20654;DHT22;21083;50.898;4.902;2022-10-14T01:39:26;15.20;99.90
20654;DHT22;21083;50.898;4.902;2022-10-14T01:41:57;15.30;99.90
20654;DHT22;21083;50.898;4.902;2022-10-14T01:44:27;15.30;99.90
20654;DHT22;21083;50.898;4.902;2022-10-14T01:46:58;15.40;99.90
20654;DHT22;21083;50.898;4.902;2022-10-14T01:49:30;15.40;99.90
20654;DHT22;21083;50.898;4.902;2022-10-14T01:52:01;15.40;99.90
20654;DHT22;21083;50.898;4.902;2022-10-14T01:54:33;15.40;99.90
20654;DHT22;21083;50.898;4.902;2022-10-14T01:57:04;15.40;99.90
20654;DHT22;21083;50.898;4.902;2022-10-14T01:59:33;15.40;99.90
20654;DHT22;21083;50.898;4.902;2022-10-14T02:02:02;15.40;99.90
20654;DHT22;21083;50.898;4.902;2022-10-14T02:04:29;15.40;99.90
20654;DHT22;21083;50.898;4.902;2022-10-14T02:07:02;15.40;99.90
20654;DHT22;21083;50.898;4.902;2022-10-14T02:09:36;15.40;99.90
20654;DHT22;21083;50.898;4.902;2022-10-14T02:12:10;15.40;99.90
20654;DHT22;21083;50.898;4.902;2022-10-14T02:14:43;15.40;99.90
20654;DHT22;21083;50.898;4.902;2022-10-14T02:17:19;15.50;99.90
20654;DHT22;21083;50.898;4.902;2022-10-14T02:19:51;15.50;99.90
20654;DHT22;21083;50.898;4.902;2022-10-14T02:22:24;15.50;99.90
20654;DHT22;21083;50.898;4.902;2022-10-14T02:24:55;15.40;99.90
20654;DHT22;21083;50.898;4.902;2022-10-14T02:27:25;15.50;99.90
20654;DHT22;21083;50.898;4.902;2022-10-14T02:29:54;15.60;99.90
20654;DHT22;21083;50.898;4.902;2022-10-14T02:32:24;15.60;99.90
20654;DHT22;21083;50.898;4.902;2022-10-14T02:34:53;15.60;99.90
20654;DHT22;21083;50.898;4.902;2022-10-14T02:37:22;15.50;99.90
20654;DHT22;21083;50.898;4.902;2022-10-14T02:39:54;15.50;99.90
20654;DHT22;21083;50.898;4.902;2022-10-14T02:42:22;15.40;99.90
20654;DHT22;21083;50.898;4.902;2022-10-14T02:44:53;15.40;99.90
20654;DHT22;21083;50.898;4.902;2022-10-14T02:47:22;15.40;99.90
20654;DHT22;21083;50.898;4.902;2022-10-14T02:49:50;15.40;99.90
20654;DHT22;21083;50.898;4.902;2022-10-14T02:52:17;15.40;99.90
20654;DHT22;21083;50.898;4.902;2022-10-14T02:54:44;15.40;99.90
20654;DHT22;21083;50.898;4.902;2022-10-14T02:57:11;15.20;99.90
20654;DHT22;21083;50.898;4.902;2022-10-14T02:59:38;15.30;99.90
20654;DHT22;21083;50.898;4.902;2022-10-14T03:02:05;15.30;99.90
20654;DHT22;21083;50.898;4.902;2022-10-14T03:04:35;15.30;99.90
20654;DHT22;21083;50.898;4.902;2022-10-14T03:07:02;15.30;99.90
20654;DHT22;21083;50.898;4.902;2022-10-14T03:09:29;15.30;99.90
20654;DHT22;21083;50.898;4.902;2022-10-14T03:11:56;15.30;99.90
20654;DHT22;21083;50.898;4.902;2022-10-14T03:14:22;15.30;99.90
20654;DHT22;21083;50.898;4.902;2022-10-14T03:16:49;15.30;99.90
20654;DHT22;21083;50.898;4.902;2022-10-14T03:19:16;15.40;99.90
20654;DHT22;21083;50.898;4.902;2022-10-14T03:21:45;15.30;99.90
20654;DHT22;21083;50.898;4.902;2022-10-14T03:24:13;15.20;99.90
20654;DHT22;21083;50.898;4.902;2022-10-14T03:26:40;15.30;99.90
20654;DHT22;21083;50.898;4.902;2022-10-14T03:29:07;15.30;99.90
20654;DHT22;21083;50.898;4.902;2022-10-14T03:31:34;15.30;99.90
20654;DHT22;21083;50.898;4.902;2022-10-14T03:34:01;15.40;99.90
20654;DHT22;21083;50.898;4.902;2022-10-14T03:36:28;15.30;99.90
20654;DHT22;21083;50.898;4.902;2022-10-14T03:38:56;15.30;99.90
20654;DHT22;21083;50.898;4.902;2022-10-14T03:41:23;15.30;99.90
20654;DHT22;21083;50.898;4.902;2022-10-14T03:43:50;15.30;99.90
20654;DHT22;21083;50.898;4.902;2022-10-14T03:46:16;15.30;99.90
20654;DHT22;21083;50.898;4.902;2022-10-14T03:48:44;15.30;99.90
20654;DHT22;21083;50.898;4.902;2022-10-14T03:51:11;15.40;99.90
20654;DHT22;21083;50.898;4.902;2022-10-14T03:53:38;15.40;99.90
20654;DHT22;21083;50.898;4.902;2022-10-14T03:56:06;15.40;99.90
20654;DHT22;21083;50.898;4.902;2022-10-14T03:58:33;15.40;99.90
20654;DHT22;21083;50.898;4.902;2022-10-14T04:01:00;15.40;99.90
20654;DHT22;21083;50.898;4.902;2022-10-14T04:03:27;15.40;99.90
20654;DHT22;21083;50.898;4.902;2022-10-14T04:05:54;15.40;99.90
20654;DHT22;21083;50.898;4.902;2022-10-14T04:08:21;15.40;99.90
20654;DHT22;21083;50.898;4.902;2022-10-14T04:10:51;15.40;99.90
20654;DHT22;21083;50.898;4.902;2022-10-14T04:13:19;15.40;99.90
20654;DHT22;21083;50.898;4.902;2022-10-14T04:15:46;15.40;99.90
20654;DHT22;21083;50.898;4.902;2022-10-14T04:18:13;15.40;99.90
20654;DHT22;21083;50.898;4.902;2022-10-14T04:20:40;15.40;99.90
20654;DHT22;21083;50.898;4.902;2022-10-14T04:23:06;15.40;99.90
20654;DHT22;21083;50.898;4.902;2022-10-14T04:25:36;15.40;99.90
20654;DHT22;21083;50.898;4.902;2022-10-14T04:28:03;15.50;99.90
20654;DHT22;21083;50.898;4.902;2022-10-14T04:30:31;15.40;99.90
20654;DHT22;21083;50.898;4.902;2022-10-14T04:32:58;15.40;99.90
20654;DHT22;21083;50.898;4.902;2022-10-14T04:35:25;15.40;99.90
20654;DHT22;21083;50.898;4.902;2022-10-14T04:37:53;15.30;99.90
20654;DHT22;21083;50.898;4.902;2022-10-14T04:40:20;15.40;99.90
20654;DHT22;21083;50.898;4.902;2022-10-14T04:42:53;15.50;99.90
20654;DHT22;21083;50.898;4.902;2022-10-14T04:45:20;15.40;99.90
20654;DHT22;21083;50.898;4.902;2022-10-14T04:47:49;15.40;99.90
20654;DHT22;21083;50.898;4.902;2022-10-14T04:50:16;15.40;99.90
20654;DHT22;21083;50.898;4.902;2022-10-14T04:52:43;15.40;99.90
20654;DHT22;21083;50.898;4.902;2022-10-14T04:55:10;15.30;99.90
20654;DHT22;21083;50.898;4.902;2022-10-14T04:57:37;15.30;99.90
20654;DHT22;21083;50.898;4.902;2022-10-14T05:00:08;15.30;99.90
20654;DHT22;21083;50.898;4.902;2022-10-14T05:02:35;15.40;99.90
20654;DHT22;21083;50.898;4.902;2022-10-14T05:05:04;15.30;99.90
20654;DHT22;21083;50.898;4.902;2022-10-14T05:07:31;15.20;99.90
20654;DHT22;21083;50.898;4.902;2022-10-14T05:09:58;15.20;99.90
20654;DHT22;21083;50.898;4.902;2022-10-14T05:12:26;15.20;99.90
20654;DHT22;21083;50.898;4.902;2022-10-14T05:14:52;15.30;99.90
20654;DHT22;21083;50.898;4.902;2022-10-14T05:17:20;15.30;99.90
20654;DHT22;21083;50.898;4.902;2022-10-14T05:19:47;15.30;99.90
20654;DHT22;21083;50.898;4.902;2022-10-14T05:22:15;15.40;99.90
20654;DHT22;21083;50.898;4.902;2022-10-14T05:24:42;15.40;99.90
20654;DHT22;21083;50.898;4.902;2022-10-14T05:27:09;15.40;99.90
20654;DHT22;21083;50.898;4.902;2022-10-14T05:29:36;15.40;99.90
20654;DHT22;21083;50.898;4.902;2022-10-14T05:32:03;15.40;99.90
20654;DHT22;21083;50.898;4.902;2022-10-14T05:34:30;15.40;99.90
20654;DHT22;21083;50.898;4.902;2022-10-14T05:36:57;15.30;99.90
20654;DHT22;21083;50.898;4.902;2022-10-14T05:39:25;15.40;99.90
20654;DHT22;21083;50.898;4.902;2022-10-14T05:41:52;15.30;99.90
20654;DHT22;21083;50.898;4.902;2022-10-14T05:44:19;15.40;99.90
20654;DHT22;21083;50.898;4.902;2022-10-14T05:46:46;15.40;99.90
20654;DHT22;21083;50.898;4.902;2022-10-14T05:49:13;15.50;99.90
20654;DHT22;21083;50.898;4.902;2022-10-14T05:51:40;15.40;99.90
20654;DHT22;21083;50.898;4.902;2022-10-14T05:54:07;15.40;99.90
20654;DHT22;21083;50.898;4.902;2022-10-14T05:56:35;15.40;99.90
20654;DHT22;21083;50.898;4.902;2022-10-14T05:59:02;15.40;99.90
20654;DHT22;21083;50.898;4.902;2022-10-14T06:01:29;15.40;99.90
20654;DHT22;21083;50.898;4.902;2022-10-14T06:03:59;15.40;99.90
20654;DHT22;21083;50.898;4.902;2022-10-14T06:06:26;15.30;99.90
20654;DHT22;21083;50.898;4.902;2022-10-14T06:08:53;15.30;99.90
20654;DHT22;21083;50.898;4.902;2022-10-14T06:11:20;15.30;99.90
20654;DHT22;21083;50.898;4.902;2022-10-14T06:13:48;15.30;99.90
20654;DHT22;21083;50.898;4.902;2022-10-14T06:16:15;15.30;99.90
20654;DHT22;21083;50.898;4.902;2022-10-14T06:18:42;15.30;99.90
20654;DHT22;21083;50.898;4.902;2022-10-14T06:21:10;15.40;99.90
20654;DHT22;21083;50.898;4.902;2022-10-14T06:23:37;15.50;99.90
20654;DHT22;21083;50.898;4.902;2022-10-14T06:26:04;15.40;99.90
20654;DHT22;21083;50.898;4.902;2022-10-14T06:28:33;15.30;99.90
20654;DHT22;21083;50.898;4.902;2022-10-14T06:31:02;15.30;99.90
20654;DHT22;21083;50.898;4.902;2022-10-14T06:33:29;15.30;99.90
20654;DHT22;21083;50.898;4.902;2022-10-14T06:35:56;15.30;99.90
20654;DHT22;21083;50.898;4.902;2022-10-14T06:38:23;15.40;99.90
20654;DHT22;21083;50.898;4.902;2022-10-14T06:40:50;15.40;99.90
20654;DHT22;21083;50.898;4.902;2022-10-14T06:43:17;15.40;99.90
20654;DHT22;21083;50.898;4.902;2022-10-14T06:45:44;15.40;99.90
20654;DHT22;21083;50.898;4.902;2022-10-14T06:48:13;15.40;99.90
20654;DHT22;21083;50.898;4.902;2022-10-14T06:50:41;15.30;99.90
20654;DHT22;21083;50.898;4.902;2022-10-14T06:53:08;15.50;99.90
20654;DHT22;21083;50.898;4.902;2022-10-14T06:55:35;15.40;99.90
20654;DHT22;21083;50.898;4.902;2022-10-14T06:58:02;15.40;99.90
20654;DHT22;21083;50.898;4.902;2022-10-14T07:00:29;15.50;99.90
20654;DHT22;21083;50.898;4.902;2022-10-14T07:02:57;15.50;99.90
20654;DHT22;21083;50.898;4.902;2022-10-14T07:05:25;15.50;99.90
20654;DHT22;21083;50.898;4.902;2022-10-14T07:07:53;15.50;99.90
20654;DHT22;21083;50.898;4.902;2022-10-14T07:10:19;15.50;99.90
20654;DHT22;21083;50.898;4.902;2022-10-14T07:12:46;15.50;99.90
20654;DHT22;21083;50.898;4.902;2022-10-14T07:15:13;15.60;99.90
20654;DHT22;21083;50.898;4.902;2022-10-14T07:17:40;15.50;99.90
20654;DHT22;21083;50.898;4.902;2022-10-14T07:20:08;15.50;99.90
20654;DHT22;21083;50.898;4.902;2022-10-14T07:22:38;15.50;99.90
20654;DHT22;21083;50.898;4.902;2022-10-14T07:25:06;15.60;99.90
20654;DHT22;21083;50.898;4.902;2022-10-14T07:27:33;15.60;99.90
20654;DHT22;21083;50.898;4.902;2022-10-14T07:30:00;15.60;99.90
20654;DHT22;21083;50.898;4.902;2022-10-14T07:32:27;15.60;99.90
20654;DHT22;21083;50.898;4.902;2022-10-14T07:34:54;15.60;99.90
20654;DHT22;21083;50.898;4.902;2022-10-14T07:37:21;15.70;99.90
20654;DHT22;21083;50.898;4.902;2022-10-14T07:39:49;15.70;99.90
20654;DHT22;21083;50.898;4.902;2022-10-14T07:42:16;15.70;99.90
20654;DHT22;21083;50.898;4.902;2022-10-14T07:44:43;15.70;99.90
20654;DHT22;21083;50.898;4.902;2022-10-14T07:47:10;15.70;99.90
20654;DHT22;21083;50.898;4.902;2022-10-14T07:49:37;15.80;99.90
20654;DHT22;21083;50.898;4.902;2022-10-14T07:52:05;15.80;99.90
20654;DHT22;21083;50.898;4.902;2022-10-14T07:54:31;15.80;99.90
20654;DHT22;21083;50.898;4.902;2022-10-14T07:57:00;15.80;99.90
20654;DHT22;21083;50.898;4.902;2022-10-14T07:59:27;15.80;99.90
20654;DHT22;21083;50.898;4.902;2022-10-14T08:01:54;15.80;99.90
20654;DHT22;21083;50.898;4.902;2022-10-14T08:04:23;15.90;99.90
20654;DHT22;21083;50.898;4.902;2022-10-14T08:06:52;15.80;99.90
20654;DHT22;21083;50.898;4.902;2022-10-14T08:09:20;15.70;99.90
20654;DHT22;21083;50.898;4.902;2022-10-14T08:11:47;15.80;99.90
20654;DHT22;21083;50.898;4.902;2022-10-14T08:14:15;15.90;99.90
20654;DHT22;21083;50.898;4.902;2022-10-14T08:16:42;16.10;99.90
20654;DHT22;21083;50.898;4.902;2022-10-14T08:19:10;16.10;99.90
20654;DHT22;21083;50.898;4.902;2022-10-14T08:21:37;16.10;99.90
20654;DHT22;21083;50.898;4.902;2022-10-14T08:24:04;16.20;99.90
20654;DHT22;21083;50.898;4.902;2022-10-14T08:26:33;16.20;99.90
20654;DHT22;21083;50.898;4.902;2022-10-14T08:29:02;16.20;99.90
20654;DHT22;21083;50.898;4.902;2022-10-14T08:31:31;16.30;99.90
20654;DHT22;21083;50.898;4.902;2022-10-14T08:33:58;16.40;99.90
20654;DHT22;21083;50.898;4.902;2022-10-14T08:36:25;16.40;99.90
20654;DHT22;21083;50.898;4.902;2022-10-14T08:38:53;16.50;99.90
20654;DHT22;21083;50.898;4.902;2022-10-14T08:41:41;16.40;99.90
20654;DHT22;21083;50.898;4.902;2022-10-14T08:44:14;16.50;99.90
20654;DHT22;21083;50.898;4.902;2022-10-14T08:46:46;16.60;99.90
20654;DHT22;21083;50.898;4.902;2022-10-14T08:49:21;16.70;99.90
20654;DHT22;21083;50.898;4.902;2022-10-14T08:51:54;16.80;99.90
20654;DHT22;21083;50.898;4.902;2022-10-14T08:54:29;16.90;99.90
20654;DHT22;21083;50.898;4.902;2022-10-14T08:56:58;17.00;99.90
20654;DHT22;21083;50.898;4.902;2022-10-14T08:59:25;17.20;99.90
20654;DHT22;21083;50.898;4.902;2022-10-14T09:01:58;17.20;99.90
20654;DHT22;21083;50.898;4.902;2022-10-14T09:04:26;17.30;99.90
20654;DHT22;21083;50.898;4.902;2022-10-14T09:06:54;17.30;99.90
20654;DHT22;21083;50.898;4.902;2022-10-14T09:09:24;17.20;99.90
20654;DHT22;21083;50.898;4.902;2022-10-14T09:11:55;17.10;99.90
20654;DHT22;21083;50.898;4.902;2022-10-14T09:14:25;17.10;99.90
20654;DHT22;21083;50.898;4.902;2022-10-14T09:16:56;17.00;99.90
20654;DHT22;21083;50.898;4.902;2022-10-14T09:19:31;17.00;99.90
20654;DHT22;21083;50.898;4.902;2022-10-14T09:21:59;17.00;99.90
20654;DHT22;21083;50.898;4.902;2022-10-14T09:24:30;17.00;99.90
20654;DHT22;21083;50.898;4.902;2022-10-14T09:27:02;17.00;99.90
20654;DHT22;21083;50.898;4.902;2022-10-14T09:29:31;17.00;99.90
20654;DHT22;21083;50.898;4.902;2022-10-14T09:32:02;17.00;99.90
20654;DHT22;21083;50.898;4.902;2022-10-14T09:34:32;16.90;99.90
20654;DHT22;21083;50.898;4.902;2022-10-14T09:37:14;16.90;99.90
20654;DHT22;21083;50.898;4.902;2022-10-14T09:39:44;16.90;99.90
20654;DHT22;21083;50.898;4.902;2022-10-14T09:42:16;17.00;99.90
20654;DHT22;21083;50.898;4.902;2022-10-14T09:44:44;17.10;99.90
20654;DHT22;21083;50.898;4.902;2022-10-14T09:47:13;17.10;99.90
20654;DHT22;21083;50.898;4.902;2022-10-14T09:49:45;17.10;99.90
20654;DHT22;21083;50.898;4.902;2022-10-14T09:52:20;17.10;99.90
20654;DHT22;21083;50.898;4.902;2022-10-14T09:54:52;17.10;99.90
20654;DHT22;21083;50.898;4.902;2022-10-14T09:57:19;17.10;99.90
20654;DHT22;21083;50.898;4.902;2022-10-14T09:59:50;17.10;99.90
20654;DHT22;21083;50.898;4.902;2022-10-14T10:02:23;17.00;99.90
20654;DHT22;21083;50.898;4.902;2022-10-14T10:04:51;17.10;99.90
20654;DHT22;21083;50.898;4.902;2022-10-14T10:07:26;17.10;99.90
20654;DHT22;21083;50.898;4.902;2022-10-14T10:09:55;17.00;99.90
20654;DHT22;21083;50.898;4.902;2022-10-14T10:12:23;17.00;99.90
20654;DHT22;21083;50.898;4.902;2022-10-14T10:14:57;17.00;99.90
20654;DHT22;21083;50.898;4.902;2022-10-14T10:17:26;17.00;99.90
20654;DHT22;21083;50.898;4.902;2022-10-14T10:20:07;17.00;99.90
20654;DHT22;21083;50.898;4.902;2022-10-14T10:22:37;17.10;99.90
20654;DHT22;21083;50.898;4.902;2022-10-14T10:25:19;16.90;99.90
20654;DHT22;21083;50.898;4.902;2022-10-14T10:27:51;16.80;99.90
20654;DHT22;21083;50.898;4.902;2022-10-14T10:30:21;16.90;99.90
20654;DHT22;21083;50.898;4.902;2022-10-14T10:33:16;16.90;99.90
20654;DHT22;21083;50.898;4.902;2022-10-14T10:36:11;16.90;99.90
20654;DHT22;21083;50.898;4.902;2022-10-14T10:38:49;16.80;99.90
20654;DHT22;21083;50.898;4.902;2022-10-14T10:44:34;16.70;99.90
20654;DHT22;21083;50.898;4.902;2022-10-14T10:47:13;16.70;99.90
20654;DHT22;21083;50.898;4.902;2022-10-14T10:49:57;16.60;99.90
20654;DHT22;21083;50.898;4.902;2022-10-14T10:52:35;16.70;99.90
20654;DHT22;21083;50.898;4.902;2022-10-14T10:55:15;16.80;99.90
20654;DHT22;21083;50.898;4.902;2022-10-14T10:57:52;16.80;99.90
20654;DHT22;21083;50.898;4.902;2022-10-14T11:00:22;16.90;99.90
20654;DHT22;21083;50.898;4.902;2022-10-14T11:02:58;16.70;99.90
20654;DHT22;21083;50.898;4.902;2022-10-14T11:05:41;16.70;99.90
20654;DHT22;21083;50.898;4.902;2022-10-14T11:08:23;16.70;99.90
20654;DHT22;21083;50.898;4.902;2022-10-14T11:11:18;16.80;99.90
20654;DHT22;21083;50.898;4.902;2022-10-14T11:14:15;16.80;99.90
20654;DHT22;21083;50.898;4.902;2022-10-14T11:16:49;16.80;99.90
20654;DHT22;21083;50.898;4.902;2022-10-14T11:19:23;16.90;99.90
20654;DHT22;21083;50.898;4.902;2022-10-14T11:22:02;16.80;99.90
20654;DHT22;21083;50.898;4.902;2022-10-14T11:24:37;16.80;99.90
20654;DHT22;21083;50.898;4.902;2022-10-14T11:27:10;16.90;99.90
20654;DHT22;21083;50.898;4.902;2022-10-14T11:32:45;17.10;99.90
20654;DHT22;21083;50.898;4.902;2022-10-14T11:35:23;17.10;99.90
20654;DHT22;21083;50.898;4.902;2022-10-14T11:38:05;17.10;99.90
20654;DHT22;21083;50.898;4.902;2022-10-14T11:40:40;17.20;99.90
20654;DHT22;21083;50.898;4.902;2022-10-14T11:43:20;17.30;99.90
20654;DHT22;21083;50.898;4.902;2022-10-14T11:45:54;17.30;99.90
20654;DHT22;21083;50.898;4.902;2022-10-14T11:48:25;17.30;99.90
20654;DHT22;21083;50.898;4.902;2022-10-14T11:50:57;17.30;99.90
20654;DHT22;21083;50.898;4.902;2022-10-14T11:53:44;17.20;99.90
20654;DHT22;21083;50.898;4.902;2022-10-14T11:56:22;17.30;99.90
20654;DHT22;21083;50.898;4.902;2022-10-14T11:58:50;17.30;99.90
20654;DHT22;21083;50.898;4.902;2022-10-14T12:01:23;17.50;99.90
20654;DHT22;21083;50.898;4.902;2022-10-14T12:03:53;17.70;99.90
20654;DHT22;21083;50.898;4.902;2022-10-14T12:06:26;17.80;99.90
20654;DHT22;21083;50.898;4.902;2022-10-14T12:08:59;18.00;99.90
20654;DHT22;21083;50.898;4.902;2022-10-14T12:11:29;18.10;99.90
20654;DHT22;21083;50.898;4.902;2022-10-14T12:14:04;18.00;99.90
20654;DHT22;21083;50.898;4.902;2022-10-14T12:16:32;17.90;99.90
20654;DHT22;21083;50.898;4.902;2022-10-14T12:18:59;17.80;99.90
20654;DHT22;21083;50.898;4.902;2022-10-14T12:21:30;17.80;99.90
20654;DHT22;21083;50.898;4.902;2022-10-14T12:24:03;17.70;99.90
20654;DHT22;21083;50.898;4.902;2022-10-14T12:26:50;17.50;99.90
20654;DHT22;21083;50.898;4.902;2022-10-14T12:29:19;17.40;99.90
20654;DHT22;21083;50.898;4.902;2022-10-14T12:32:04;17.40;99.90
20654;DHT22;21083;50.898;4.902;2022-10-14T12:34:34;17.40;99.90
20654;DHT22;21083;50.898;4.902;2022-10-14T12:37:39;17.30;99.90
20654;DHT22;21083;50.898;4.902;2022-10-14T12:40:26;17.20;99.90
20654;DHT22;21083;50.898;4.902;2022-10-14T12:43:03;17.30;99.90
20654;DHT22;21083;50.898;4.902;2022-10-14T12:45:32;17.10;99.90
20654;DHT22;21083;50.898;4.902;2022-10-14T12:48:02;17.10;99.90
20654;DHT22;21083;50.898;4.902;2022-10-14T12:50:34;17.00;99.90
20654;DHT22;21083;50.898;4.902;2022-10-14T12:53:05;17.10;99.90
20654;DHT22;21083;50.898;4.902;2022-10-14T12:55:45;17.20;99.90
20654;DHT22;21083;50.898;4.902;2022-10-14T12:58:23;17.30;99.90
20654;DHT22;21083;50.898;4.902;2022-10-14T13:00:57;17.60;99.90
20654;DHT22;21083;50.898;4.902;2022-10-14T13:03:26;17.60;99.90
20654;DHT22;21083;50.898;4.902;2022-10-14T13:18:51;18.20;99.90
20654;DHT22;21083;50.898;4.902;2022-10-14T13:21:30;18.20;99.90
20654;DHT22;21083;50.898;4.902;2022-10-14T13:24:18;18.20;99.90
20654;DHT22;21083;50.898;4.902;2022-10-14T13:26:55;18.40;99.90
20654;DHT22;21083;50.898;4.902;2022-10-14T13:29:29;18.60;99.90
20654;DHT22;21083;50.898;4.902;2022-10-14T13:32:05;18.60;99.90
20654;DHT22;21083;50.898;4.902;2022-10-14T13:34:43;18.60;99.90
20654;DHT22;21083;50.898;4.902;2022-10-14T13:37:31;18.80;99.90
20654;DHT22;21083;50.898;4.902;2022-10-14T13:40:11;19.20;99.90
20654;DHT22;21083;50.898;4.902;2022-10-14T13:42:42;19.30;99.90
20654;DHT22;21083;50.898;4.902;2022-10-14T13:45:12;19.50;99.90
20654;DHT22;21083;50.898;4.902;2022-10-14T13:47:43;19.60;99.90
20654;DHT22;21083;50.898;4.902;2022-10-14T13:50:15;19.50;99.90
20654;DHT22;21083;50.898;4.902;2022-10-14T13:52:48;19.20;99.90
20654;DHT22;21083;50.898;4.902;2022-10-14T13:55:19;18.90;99.90
20654;DHT22;21083;50.898;4.902;2022-10-14T13:58:02;18.80;99.90
20654;DHT22;21083;50.898;4.902;2022-10-14T14:00:31;18.50;99.90
20654;DHT22;21083;50.898;4.902;2022-10-14T14:03:00;18.50;99.90
20654;DHT22;21083;50.898;4.902;2022-10-14T14:05:33;18.50;99.90
20654;DHT22;21083;50.898;4.902;2022-10-14T14:08:02;18.60;99.90
20654;DHT22;21083;50.898;4.902;2022-10-14T14:10:29;18.30;99.90
20654;DHT22;21083;50.898;4.902;2022-10-14T14:12:57;18.40;99.90
20654;DHT22;21083;50.898;4.902;2022-10-14T14:15:26;18.50;99.90
20654;DHT22;21083;50.898;4.902;2022-10-14T14:17:54;18.50;99.90
20654;DHT22;21083;50.898;4.902;2022-10-14T14:20:24;18.40;99.90
20654;DHT22;21083;50.898;4.902;2022-10-14T14:22:52;18.50;99.90
20654;DHT22;21083;50.898;4.902;2022-10-14T14:25:22;18.50;99.90
20654;DHT22;21083;50.898;4.902;2022-10-14T14:27:51;18.50;99.90
20654;DHT22;21083;50.898;4.902;2022-10-14T14:30:27;18.50;99.90
20654;DHT22;21083;50.898;4.902;2022-10-14T14:32:57;18.50;99.90
20654;DHT22;21083;50.898;4.902;2022-10-14T14:35:25;18.40;99.90
20654;DHT22;21083;50.898;4.902;2022-10-14T14:37:53;18.40;99.90
20654;DHT22;21083;50.898;4.902;2022-10-14T14:40:21;18.20;99.90
20654;DHT22;21083;50.898;4.902;2022-10-14T14:42:51;18.20;99.90
20654;DHT22;21083;50.898;4.902;2022-10-14T14:45:20;18.20;99.90
20654;DHT22;21083;50.898;4.902;2022-10-14T14:47:51;18.10;99.90
20654;DHT22;21083;50.898;4.902;2022-10-14T14:50:23;18.30;99.90
20654;DHT22;21083;50.898;4.902;2022-10-14T14:52:53;18.10;99.90
20654;DHT22;21083;50.898;4.902;2022-10-14T14:55:36;18.20;99.90
20654;DHT22;21083;50.898;4.902;2022-10-14T14:58:05;18.30;99.90
20654;DHT22;21083;50.898;4.902;2022-10-14T15:00:43;18.10;99.90
20654;DHT22;21083;50.898;4.902;2022-10-14T15:03:10;18.10;99.90
20654;DHT22;21083;50.898;4.902;2022-10-14T15:05:37;18.00;99.90
20654;DHT22;21083;50.898;4.902;2022-10-14T15:08:13;17.90;99.90
20654;DHT22;21083;50.898;4.902;2022-10-14T15:10:46;18.00;99.90
20654;DHT22;21083;50.898;4.902;2022-10-14T15:13:25;18.10;99.90
20654;DHT22;21083;50.898;4.902;2022-10-14T15:15:53;18.10;99.90
20654;DHT22;21083;50.898;4.902;2022-10-14T15:18:22;18.00;99.90
20654;DHT22;21083;50.898;4.902;2022-10-14T15:21:12;18.00;99.90
20654;DHT22;21083;50.898;4.902;2022-10-14T15:23:43;17.80;99.90
20654;DHT22;21083;50.898;4.902;2022-10-14T15:26:22;17.60;99.90
20654;DHT22;21083;50.898;4.902;2022-10-14T15:29:04;17.70;99.90
20654;DHT22;21083;50.898;4.902;2022-10-14T15:31:31;17.70;99.90
20654;DHT22;21083;50.898;4.902;2022-10-14T15:33:58;17.80;99.90
20654;DHT22;21083;50.898;4.902;2022-10-14T15:36:26;17.90;99.90
20654;DHT22;21083;50.898;4.902;2022-10-14T15:38:58;17.80;99.90
20654;DHT22;21083;50.898;4.902;2022-10-14T15:41:26;17.90;99.90
20654;DHT22;21083;50.898;4.902;2022-10-14T15:43:53;17.90;99.90
20654;DHT22;21083;50.898;4.902;2022-10-14T15:46:20;17.90;99.90
20654;DHT22;21083;50.898;4.902;2022-10-14T15:49:15;17.80;99.90
20654;DHT22;21083;50.898;4.902;2022-10-14T15:51:43;17.80;99.90
20654;DHT22;21083;50.898;4.902;2022-10-14T15:54:11;17.80;99.90
20654;DHT22;21083;50.898;4.902;2022-10-14T15:56:38;17.90;99.90
20654;DHT22;21083;50.898;4.902;2022-10-14T15:59:05;17.90;99.90
20654;DHT22;21083;50.898;4.902;2022-10-14T16:01:34;17.70;99.90
20654;DHT22;21083;50.898;4.902;2022-10-14T16:04:02;17.60;99.90
20654;DHT22;21083;50.898;4.902;2022-10-14T16:06:29;17.70;99.90
20654;DHT22;21083;50.898;4.902;2022-10-14T16:08:57;17.80;99.90
20654;DHT22;21083;50.898;4.902;2022-10-14T16:11:28;17.80;99.90